createdAt,value
2023-02-15T00:00:55.915Z,8.80
2023-02-15T00:05:02.694Z,9.13
2023-02-15T00:09:11.004Z,10.83
2023-02-15T00:13:17.667Z,10.63
2023-02-15T00:17:24.416Z,8.67
2023-02-15T00:21:32.659Z,8.93
2023-02-15T00:25:39.451Z,8.23
2023-02-15T00:29:48.084Z,9.53
2023-02-15T00:33:55.009Z,8.50
2023-02-15T00:38:01.667Z,10.07
2023-02-15T00:42:08.416Z,10.40
2023-02-15T00:46:15.171Z,11.97
2023-02-15T00:50:23.842Z,12.73
2023-02-15T00:54:30.638Z,12.30
2023-02-15T00:58:37.529Z,13.00
2023-02-15T01:02:44.380Z,17.00
2023-02-15T01:06:51.061Z,14.60
2023-02-15T01:10:57.953Z,14.60
2023-02-15T01:15:04.894Z,15.67
2023-02-15T01:19:11.601Z,15.27
2023-02-15T01:23:18.290Z,14.40
2023-02-15T01:27:25.112Z,11.83
2023-02-15T01:31:31.896Z,11.60
2023-02-15T01:35:38.599Z,13.10
2023-02-15T01:39:45.568Z,12.97
2023-02-15T01:43:59.644Z,16.07
2023-02-15T01:48:26.264Z,16.10
2023-02-15T01:52:35.658Z,14.67
2023-02-15T01:56:42.779Z,15.20
2023-02-15T02:00:49.526Z,14.37
2023-02-15T02:05:03.784Z,14.37
2023-02-15T02:09:11.328Z,13.70
2023-02-15T02:13:18.081Z,13.67
2023-02-15T02:17:36.165Z,13.23
2023-02-15T02:22:13.662Z,14.80
2023-02-15T02:26:52.484Z,15.10
2023-02-15T02:31:37.555Z,14.87
2023-02-15T02:36:06.221Z,14.33
2023-02-15T02:40:39.105Z,16.37
2023-02-15T02:48:58.082Z,14.47
2023-02-15T02:53:04.861Z,14.67
2023-02-15T02:57:11.590Z,14.87
2023-02-15T03:01:44.338Z,14.30
2023-02-15T03:05:54.406Z,15.05
2023-02-15T03:10:04.675Z,13.87
2023-02-15T03:14:13.644Z,13.83
2023-02-15T03:18:25.920Z,13.20
2023-02-15T03:22:37.415Z,14.07
2023-02-15T03:26:47.804Z,14.40
2023-02-15T03:30:59.735Z,15.23
2023-02-15T03:35:07.593Z,11.07
2023-02-15T03:39:31.788Z,15.13
2023-02-15T03:43:38.428Z,13.67
2023-02-15T03:47:49.192Z,12.43
2023-02-15T03:51:58.479Z,12.33
2023-02-15T03:56:05.184Z,12.23
2023-02-15T04:00:43.363Z,12.03
2023-02-15T04:04:50.155Z,12.77
2023-02-15T04:09:15.664Z,11.97
2023-02-15T04:13:24.638Z,11.10
2023-02-15T04:17:31.339Z,12.43
2023-02-15T04:21:56.704Z,12.37
2023-02-15T04:26:07.142Z,13.33
2023-02-15T04:30:15.509Z,14.43
2023-02-15T04:34:23.126Z,14.53
2023-02-15T04:38:29.962Z,14.00
2023-02-15T04:42:36.838Z,13.57
2023-02-15T04:46:43.526Z,14.60
2023-02-15T04:50:50.256Z,13.63
2023-02-15T04:54:56.963Z,13.83
2023-02-15T04:59:03.658Z,13.67
2023-02-15T05:03:10.575Z,14.17
2023-02-15T05:07:17.466Z,14.00
2023-02-15T05:11:24.167Z,12.73
2023-02-15T05:15:30.891Z,13.73
2023-02-15T05:19:37.576Z,13.47
2023-02-15T05:23:44.308Z,12.63
2023-02-15T05:28:09.716Z,12.93
2023-02-15T05:32:16.512Z,12.90
2023-02-15T05:36:23.522Z,13.27
2023-02-15T05:40:30.273Z,13.67
2023-02-15T05:44:36.978Z,12.07
2023-02-15T05:48:43.669Z,12.77
2023-02-15T05:52:52.392Z,14.57
2023-02-15T05:56:59.318Z,14.83
2023-02-15T06:01:14.373Z,14.97
2023-02-15T06:05:21.070Z,14.33
2023-02-15T06:09:27.813Z,14.87
2023-02-15T06:13:38.044Z,14.43
2023-02-15T06:17:45.203Z,15.07
2023-02-15T06:21:51.892Z,13.73
2023-02-15T06:25:58.614Z,13.47
2023-02-15T06:30:06.957Z,14.87
2023-02-15T06:34:13.649Z,13.20
2023-02-15T06:38:20.448Z,14.43
2023-02-15T06:42:27.557Z,13.43
2023-02-15T06:46:34.390Z,13.17
2023-02-15T06:50:41.152Z,12.60
2023-02-15T06:54:47.833Z,11.70
2023-02-15T06:58:54.669Z,13.70
2023-02-15T07:03:03.008Z,13.63
2023-02-15T07:07:11.464Z,13.87
2023-02-15T07:11:36.604Z,13.60
2023-02-15T07:15:43.777Z,13.60
2023-02-15T07:19:50.515Z,12.53
2023-02-15T07:24:00.334Z,14.53
2023-02-15T07:28:07.094Z,14.53
2023-02-15T07:32:13.849Z,13.37
2023-02-15T07:36:20.572Z,13.63
2023-02-15T07:40:27.338Z,13.13
2023-02-15T07:44:34.074Z,14.47
2023-02-15T07:48:41.538Z,14.20
2023-02-15T07:52:48.243Z,14.47
2023-02-15T07:56:54.926Z,14.63
2023-02-15T08:01:05.082Z,14.90
2023-02-15T08:05:11.771Z,16.50
2023-02-15T08:09:18.465Z,15.53
2023-02-15T08:13:25.115Z,15.53
2023-02-15T08:17:31.832Z,16.87
2023-02-15T08:21:41.277Z,16.90
2023-02-15T08:25:47.970Z,16.40
2023-02-15T08:29:54.770Z,16.87
2023-02-15T08:34:02.136Z,18.30
2023-02-15T08:38:08.917Z,18.97
2023-02-15T08:42:15.707Z,17.37
2023-02-15T08:46:24.576Z,18.10
2023-02-15T08:50:31.451Z,18.07
2023-02-15T08:54:38.316Z,17.93
2023-02-15T08:58:45.685Z,18.37
2023-02-15T09:02:53.335Z,18.70
2023-02-15T09:07:00.071Z,20.07
2023-02-15T09:11:24.916Z,17.57
2023-02-15T09:15:31.623Z,19.55
2023-02-15T09:19:38.276Z,17.07
2023-02-15T09:23:46.782Z,18.95
2023-02-15T09:27:53.587Z,19.83
2023-02-15T09:32:00.316Z,18.52
2023-02-15T09:36:28.384Z,20.33
2023-02-15T09:40:45.190Z,21.25
2023-02-15T09:45:19.286Z,18.80
2023-02-15T09:49:38.836Z,19.08
2023-02-15T09:54:12.272Z,18.67
2023-02-15T09:58:26.502Z,19.08
2023-02-15T10:03:18.310Z,19.25
2023-02-15T10:07:43.630Z,18.48
2023-02-15T10:12:15.260Z,19.88
2023-02-15T10:16:46.966Z,19.45
2023-02-15T10:21:11.700Z,20.35
2023-02-15T10:25:46.871Z,18.80
2023-02-15T10:30:11.717Z,19.63
2023-02-15T10:34:20.070Z,19.85
2023-02-15T10:38:38.139Z,20.60
2023-02-15T10:43:12.304Z,18.60
2023-02-15T10:47:56.092Z,20.58
2023-02-15T10:52:40.384Z,19.52
2023-02-15T10:56:49.809Z,18.67
2023-02-15T11:01:13.804Z,17.52
2023-02-15T11:05:42.435Z,19.08
2023-02-15T11:10:16.757Z,16.67
2023-02-15T11:14:37.361Z,17.45
2023-02-15T11:19:00.033Z,17.42
2023-02-15T11:23:19.408Z,17.17
2023-02-15T11:27:31.107Z,17.92
2023-02-15T11:31:46.419Z,17.60
2023-02-15T11:36:09.987Z,18.98
2023-02-15T11:40:32.406Z,18.08
2023-02-15T11:44:47.855Z,15.88
2023-02-15T11:48:54.556Z,17.38
2023-02-15T11:53:05.231Z,17.95
2023-02-15T11:57:29.359Z,17.13
2023-02-15T12:01:43.523Z,16.13
2023-02-15T12:05:57.233Z,17.63
2023-02-15T12:10:18.117Z,16.67
2023-02-15T12:14:25.132Z,16.95
2023-02-15T12:18:47.794Z,17.17
2023-02-15T12:23:03.295Z,15.75
2023-02-15T12:27:29.746Z,15.68
2023-02-15T12:31:42.828Z,15.85
2023-02-15T12:36:02.388Z,16.27
2023-02-15T12:40:34.412Z,17.08
2023-02-15T12:44:54.987Z,17.45
2023-02-15T12:49:21.617Z,16.17
2023-02-15T12:53:34.233Z,17.40
2023-02-15T12:57:40.985Z,17.17
2023-02-15T13:01:48.234Z,17.15
2023-02-15T13:05:57.279Z,17.27
2023-02-15T13:10:04.229Z,17.48
2023-02-15T13:14:23.509Z,17.17
2023-02-15T13:18:40.170Z,16.33
2023-02-15T13:22:48.920Z,17.10
2023-02-15T13:27:14.088Z,16.42
2023-02-15T13:31:25.784Z,16.95
2023-02-15T13:36:00.306Z,16.30
2023-02-15T13:40:19.865Z,18.10
2023-02-15T13:44:38.366Z,17.15
2023-02-15T13:48:51.356Z,17.95
2023-02-15T13:53:19.081Z,18.13
2023-02-15T13:57:47.968Z,18.90
2023-02-15T14:02:39.620Z,19.00
2023-02-15T14:06:59.172Z,18.08
2023-02-15T14:11:12.055Z,18.13
2023-02-15T14:16:03.561Z,18.20
2023-02-15T14:20:35.098Z,18.02
2023-02-15T14:24:56.833Z,18.65
2023-02-15T14:29:40.443Z,17.92
2023-02-15T14:33:58.164Z,18.88
2023-02-15T14:38:13.671Z,19.33
2023-02-15T14:42:44.547Z,19.45
2023-02-15T14:47:15.745Z,19.63
2023-02-15T14:51:41.425Z,20.15
2023-02-15T14:55:48.105Z,19.45
2023-02-15T14:59:59.374Z,20.33
2023-02-15T15:04:14.400Z,19.55
2023-02-15T15:08:35.480Z,20.05
2023-02-15T15:12:43.042Z,19.40
2023-02-15T15:16:51.761Z,19.80
2023-02-15T15:20:58.473Z,21.23
2023-02-15T15:25:31.645Z,19.52
2023-02-15T15:29:42.325Z,20.25
2023-02-15T15:34:26.581Z,18.48
2023-02-15T15:38:52.117Z,21.00
2023-02-15T15:43:41.636Z,20.92
2023-02-15T15:48:09.910Z,19.85
2023-02-15T15:52:19.168Z,21.05
2023-02-15T15:56:32.087Z,21.48
2023-02-15T16:00:54.274Z,21.42
2023-02-15T16:05:09.177Z,20.90
2023-02-15T16:09:22.021Z,20.92
2023-02-15T16:13:28.869Z,21.40
2023-02-15T16:17:35.603Z,22.17
2023-02-15T16:21:42.351Z,21.30
2023-02-15T16:26:15.647Z,20.65
2023-02-15T16:30:22.446Z,21.70
2023-02-15T16:34:33.185Z,20.85
2023-02-15T16:38:59.945Z,20.08
2023-02-15T16:43:12.597Z,18.33
2023-02-15T16:47:26.008Z,20.75
2023-02-15T16:51:35.422Z,20.75
2023-02-15T16:55:43.458Z,21.42
2023-02-15T16:59:53.362Z,20.35
2023-02-15T17:04:29.974Z,20.35
2023-02-15T17:08:45.965Z,21.55
2023-02-15T17:13:00.914Z,19.63
2023-02-15T17:17:12.888Z,21.15
2023-02-15T17:21:25.215Z,21.70
2023-02-15T17:25:43.252Z,23.17
2023-02-15T17:29:53.366Z,20.52
2023-02-15T17:34:01.861Z,21.58
2023-02-15T17:38:18.916Z,22.33
2023-02-15T17:42:25.680Z,20.55
2023-02-15T17:46:37.871Z,21.27
2023-02-15T17:50:44.583Z,21.13
2023-02-15T17:55:09.961Z,21.88
2023-02-15T17:59:16.687Z,20.92
2023-02-15T18:03:43.970Z,20.73
2023-02-15T18:08:09.155Z,23.00
2023-02-15T18:12:25.715Z,19.48
2023-02-15T18:16:40.575Z,21.20
2023-02-15T18:20:47.522Z,23.05
2023-02-15T18:24:54.232Z,20.80
2023-02-15T18:29:00.908Z,21.05
2023-02-15T18:33:11.192Z,21.35
2023-02-15T18:37:21.113Z,18.83
2023-02-15T18:41:27.861Z,17.70
2023-02-15T18:45:36.157Z,22.55
2023-02-15T18:49:42.887Z,22.00
2023-02-15T18:53:53.385Z,19.15
2023-02-15T18:58:01.249Z,21.75
2023-02-15T19:02:13.912Z,20.90
2023-02-15T19:06:24.885Z,21.00
2023-02-15T19:10:33.074Z,19.33
2023-02-15T19:14:39.830Z,21.90
2023-02-15T19:18:46.523Z,24.40
2023-02-15T19:22:55.592Z,22.83
2023-02-15T19:27:02.665Z,25.10
2023-02-15T19:31:13.684Z,21.92
2023-02-15T19:35:23.371Z,23.63
2023-02-15T19:39:39.570Z,23.52
2023-02-15T19:43:53.338Z,24.33
2023-02-15T19:48:01.707Z,21.77
2023-02-15T19:52:25.682Z,22.85
2023-02-15T19:56:32.414Z,21.48
2023-02-15T20:00:39.484Z,20.90
2023-02-15T20:04:46.255Z,21.67
2023-02-15T20:08:53.471Z,22.17
2023-02-15T20:13:02.509Z,20.50
2023-02-15T20:17:09.192Z,21.48
2023-02-15T20:21:16.545Z,20.23
2023-02-15T20:25:28.419Z,21.30
2023-02-15T20:29:35.124Z,20.80
2023-02-15T20:33:42.036Z,22.15
2023-02-15T20:37:53.766Z,21.08
2023-02-15T20:42:00.490Z,21.50
2023-02-15T20:46:07.765Z,22.23
2023-02-15T20:50:17.307Z,22.48
2023-02-15T20:54:26.979Z,22.60
2023-02-15T20:58:35.642Z,23.85
2023-02-15T21:02:42.486Z,23.45
2023-02-15T21:06:49.155Z,22.50
2023-02-15T21:10:55.895Z,23.98
2023-02-15T21:15:02.581Z,22.75
2023-02-15T21:19:20.764Z,23.33
2023-02-15T21:23:33.092Z,22.73
2023-02-15T21:27:39.756Z,23.20
2023-02-15T21:31:47.109Z,23.05
2023-02-15T21:35:56.739Z,22.60
2023-02-15T21:40:06.941Z,23.27
2023-02-15T21:44:38.237Z,23.85
2023-02-15T21:48:46.376Z,22.85
2023-02-15T21:52:53.833Z,22.42
2023-02-15T21:57:00.949Z,23.42
2023-02-15T22:01:24.838Z,23.73
2023-02-15T22:05:33.530Z,23.75
2023-02-15T22:09:40.214Z,22.75
2023-02-15T22:13:48.760Z,23.67
2023-02-15T22:17:55.524Z,23.17
2023-02-15T22:22:02.199Z,21.88
2023-02-15T22:26:15.313Z,23.52
2023-02-15T22:30:32.274Z,24.55
2023-02-15T22:34:39.401Z,22.80
2023-02-15T22:38:46.263Z,24.20
2023-02-15T22:42:54.604Z,22.75
2023-02-15T22:47:01.563Z,22.90
2023-02-15T22:51:17.887Z,23.63
2023-02-15T22:55:27.812Z,24.63
2023-02-15T22:59:34.665Z,24.40
2023-02-15T23:03:41.374Z,21.30
2023-02-15T23:07:49.337Z,23.08
2023-02-15T23:11:59.257Z,24.75
2023-02-15T23:16:07.707Z,23.40
2023-02-15T23:20:17.627Z,23.08
2023-02-15T23:24:28.534Z,23.55
2023-02-15T23:28:38.160Z,23.00
2023-02-15T23:32:44.964Z,24.33
2023-02-15T23:36:51.784Z,24.83
2023-02-15T23:41:21.712Z,25.58
2023-02-15T23:45:28.563Z,24.05
2023-02-15T23:49:35.236Z,24.83
2023-02-15T23:53:42.006Z,26.42
2023-02-15T23:57:49.536Z,25.63
